Drew, MS (38737)

1:43 PM CDT on September 19, 2014 (GMT -0500)
Cleveland Municipal | Change Station
CLOSE
Current Station
Airport
Location: Cleveland Municipal Airport,
Elevation: 138 ft
Nearby Weather Stations

Elev 138 ft 33.76 °N, 90.76 °W | Updated 8 minutes ago

Clear
Clear
84 °F
Feels Like 88 °F
N
9
Wind Variable Wind from East

Today
High -- | Low -- °F
--% Chance of Precip.
Yesterday
High -- | Low -- °F
Precip. -- in
6:48 AM 7:03 PM
Waning Crescent, 17% visible
Pressure 30.00 in
Visibility 10.0 miles
Clouds Clear
Heat Index 88 °F
Dew Point 69 °F
Humidity 60%
Rainfall 0.01 in
Snow Depth Not available.
UV 9 out of 12
Pollen 8.30 out of 12
Air Quality Not available.
Flu Activity Not available.
METAR KRNV 191835Z AUTO 10008KT 10SM CLR 29/21 A3000 RMK AO2 T02910205

More Conditions Fewer Conditions

Pressure 30.00 in
Visibility 10.0 miles
Clouds Clear
Heat Index 88 °F
Dew Point 69 °F
Humidity 60%
Rainfall 0.01 in
Snow Depth Not available.
UV 9 out of 12
Pollen 8.30 out of 12
Air Quality Not available.
Flu Activity Not available.
METAR KRNV 191835Z AUTO 10008KT 10SM CLR 29/21 A3000 RMK AO2 T02910205

More Conditions Fewer Conditions

10-Day Weather Forecast

Almanac

Astronomy

Sep. 19, 2014 Rise Set
Actual Time 6:48 AM CDT 7:03 PM CDT
Civil Twilight 6:23 AM CDT 7:27 PM CDT
Nautical Twilight 5:54 AM CDT 7:57 PM CDT
Astronomical Twilight 5:24 AM CDT 8:26 PM CDT
Moon 2:43 AM CDT 4:23 PM CDT
Length of Visible Light 13h 04m
Length of Day
12h 14m
Tomorrow will be 2m 6s shorter.
Waning Crescent, 17% of the Moon is Illuminated
Today
Waning Crescent
Sep 24
New
Oct 1
First Quarter
Oct 8
Full
Oct 15
Last Quarter

Today's Extremes

State Highs State Lows

Community

WunderPhotos

Upload Photos

1,754,680 photos uploaded!

WunderBlogs® & News

Nearby

Snow Depth

Station Depth Elevation
No new snow has been reported.

Earthquake Activity

City Distance Mag. Time & Date
No recent earthquake activity has been reported nearby.
Minimum magnitude displayed is 2.5.

Coastal Water Temperatures

Place Temperature
No Stations Reporting

Nearby Weather Stations